createdAt,value
2023-03-23T15:58:18.367Z,15.30
2023-03-23T15:59:18.356Z,15.31
2023-03-23T16:00:18.343Z,15.33
2023-03-23T16:01:18.511Z,15.36
2023-03-23T16:02:18.364Z,15.39
2023-03-23T16:03:18.335Z,15.41
2023-03-23T16:04:18.282Z,15.42
2023-03-23T16:05:18.307Z,15.43
2023-03-23T16:06:23.824Z,15.43
2023-03-23T16:07:19.317Z,15.41
2023-03-23T16:08:18.266Z,15.42
2023-03-23T16:09:18.270Z,15.43
2023-03-23T16:10:18.238Z,15.42
2023-03-23T16:11:18.234Z,15.42
2023-03-23T16:12:18.197Z,15.42
2023-03-23T16:13:18.209Z,15.45
2023-03-23T16:14:18.188Z,15.46
2023-03-23T16:15:18.183Z,15.54
2023-03-23T16:16:19.157Z,15.56
2023-03-23T16:17:18.191Z,15.56
2023-03-23T16:18:18.131Z,15.63
2023-03-23T16:19:18.151Z,15.61
2023-03-23T16:20:18.102Z,15.64
2023-03-23T16:21:18.100Z,15.67
2023-03-23T16:22:18.727Z,15.70
2023-03-23T16:23:18.057Z,15.74
2023-03-23T16:24:19.052Z,15.75
2023-03-23T16:25:18.075Z,15.75
2023-03-23T16:26:18.047Z,15.76
2023-03-23T16:27:18.033Z,15.74
2023-03-23T16:28:18.040Z,15.74
2023-03-23T16:29:33.910Z,15.74
2023-03-23T16:30:19.032Z,15.74
2023-03-23T16:31:18.044Z,15.72
2023-03-23T16:32:17.996Z,15.68
2023-03-23T16:33:18.016Z,15.68
2023-03-23T16:34:17.972Z,15.67
2023-03-23T16:35:17.976Z,15.67
2023-03-23T16:36:17.998Z,15.63
2023-03-23T16:37:17.904Z,15.59
2023-03-23T16:38:17.918Z,15.56
2023-03-23T16:39:17.893Z,15.57
2023-03-23T16:40:17.917Z,15.57
2023-03-23T16:41:18.819Z,15.57
2023-03-23T16:42:17.878Z,15.60
2023-03-23T16:43:17.863Z,15.60
2023-03-23T16:44:17.854Z,15.61
2023-03-23T16:45:17.832Z,15.59
2023-03-23T16:46:17.919Z,15.59
2023-03-23T16:47:17.805Z,15.61
2023-03-23T16:48:17.832Z,15.60
2023-03-23T16:49:17.778Z,15.59
2023-03-23T16:50:17.788Z,15.56
2023-03-23T16:51:17.775Z,15.54
2023-03-23T16:52:17.777Z,15.54
2023-03-23T16:53:17.751Z,15.51
2023-03-23T16:54:17.733Z,15.48
2023-03-23T16:55:17.711Z,15.45
2023-03-23T16:56:19.201Z,15.42
2023-03-23T16:57:17.682Z,15.38
2023-03-23T16:58:18.665Z,15.31
2023-03-23T16:59:17.686Z,15.27
2023-03-23T17:00:17.697Z,15.24
2023-03-23T17:01:17.676Z,15.23
2023-03-23T17:02:17.755Z,15.19
2023-03-23T17:03:18.723Z,15.15
2023-03-23T17:04:17.624Z,15.13
2023-03-23T17:05:19.043Z,15.13
2023-03-23T17:06:17.620Z,15.12
2023-03-23T17:07:17.586Z,15.11
2023-03-23T17:08:17.585Z,15.11
2023-03-23T17:09:17.558Z,15.08
2023-03-23T17:10:17.589Z,15.08
2023-03-23T17:11:17.522Z,15.06
2023-03-23T17:12:17.548Z,15.06
2023-03-23T17:13:17.549Z,15.05
2023-03-23T17:14:17.550Z,15.03
2023-03-23T17:15:18.958Z,15.02
2023-03-23T17:16:17.550Z,15.02
2023-03-23T17:17:18.419Z,15.01
2023-03-23T17:18:17.487Z,15.01
2023-03-23T17:19:17.428Z,15.02
2023-03-23T17:20:17.460Z,15.02
2023-03-23T17:21:17.430Z,14.99
2023-03-23T17:22:17.474Z,14.98
2023-03-23T17:23:17.404Z,14.95
2023-03-23T17:24:17.398Z,14.93
2023-03-23T17:25:17.365Z,14.93
2023-03-23T17:26:17.406Z,14.93
2023-03-23T17:27:17.342Z,14.88
2023-03-23T17:28:19.565Z,14.88
2023-03-23T17:29:17.321Z,14.88
2023-03-23T17:30:17.333Z,14.87
2023-03-23T17:31:17.330Z,14.87
2023-03-23T17:32:17.313Z,14.87
2023-03-23T17:33:17.296Z,14.86
2023-03-23T17:34:18.746Z,14.86
2023-03-23T17:35:17.296Z,14.84
2023-03-23T17:36:17.302Z,14.86
2023-03-23T17:37:17.239Z,14.84
2023-03-23T17:38:17.242Z,14.83
2023-03-23T17:39:17.210Z,14.83
2023-03-23T17:40:17.244Z,14.83
2023-03-23T17:41:17.201Z,14.83
2023-03-23T17:42:17.242Z,14.81
2023-03-23T17:43:17.182Z,14.80
2023-03-23T17:44:17.179Z,14.78
2023-03-23T17:45:17.147Z,14.78
2023-03-23T17:46:17.179Z,14.75
2023-03-23T17:47:17.143Z,14.74
2023-03-23T17:48:17.142Z,14.72
2023-03-23T17:49:17.108Z,14.71
2023-03-23T17:50:17.120Z,14.72
2023-03-23T17:51:17.111Z,14.69
2023-03-23T17:52:17.084Z,14.67
2023-03-23T17:53:17.312Z,14.69
2023-03-23T17:54:17.073Z,14.68
2023-03-23T17:55:17.020Z,14.68
2023-03-23T17:56:17.036Z,14.68
2023-03-23T17:57:16.994Z,14.68
2023-03-23T17:58:17.041Z,14.67
2023-03-23T17:59:17.937Z,14.67
2023-03-23T18:00:17.968Z,14.65
2023-03-23T18:01:16.997Z,14.67
2023-03-23T18:02:17.001Z,14.64
2023-03-23T18:03:16.968Z,14.64
2023-03-23T18:04:16.952Z,14.61
2023-03-23T18:05:16.919Z,14.62
2023-03-23T18:06:16.960Z,14.61
2023-03-23T18:07:16.891Z,14.56
2023-03-23T18:08:16.916Z,14.53
2023-03-23T18:09:16.862Z,14.52
2023-03-23T18:10:16.874Z,14.49
2023-03-23T18:11:16.845Z,14.46
2023-03-23T18:12:17.852Z,14.42
2023-03-23T18:13:17.790Z,14.38
2023-03-23T18:14:17.805Z,14.35
2023-03-23T18:15:17.751Z,14.34
2023-03-23T18:16:17.812Z,14.31
2023-03-23T18:17:17.724Z,14.29
2023-03-23T18:18:17.743Z,14.28
2023-03-23T18:19:17.707Z,14.25
2023-03-23T18:20:16.760Z,14.24
2023-03-23T18:21:16.755Z,14.20
2023-03-23T18:22:16.752Z,14.19
2023-03-23T18:23:16.719Z,14.19
2023-03-23T18:24:17.683Z,14.16
2023-03-23T18:25:16.709Z,14.14
2023-03-23T18:26:16.711Z,14.12
2023-03-23T18:27:16.682Z,14.10
2023-03-23T18:28:16.704Z,14.07
2023-03-23T18:29:16.656Z,14.06
2023-03-23T18:30:16.680Z,14.04
2023-03-23T18:31:16.644Z,14.02
2023-03-23T18:32:16.624Z,14.02
2023-03-23T18:33:18.205Z,13.99
2023-03-23T18:34:16.631Z,13.98
2023-03-23T18:35:16.568Z,13.96
2023-03-23T18:36:16.610Z,13.94
2023-03-23T18:37:16.546Z,13.94
2023-03-23T18:38:16.557Z,13.92
2023-03-23T18:39:16.545Z,13.91
2023-03-23T18:40:16.546Z,13.89
2023-03-23T18:41:16.519Z,13.87
2023-03-23T18:42:16.511Z,13.84
2023-03-23T18:43:16.496Z,13.84
2023-03-23T18:44:16.532Z,13.81
2023-03-23T18:45:16.481Z,13.79
2023-03-23T18:46:16.536Z,13.79
2023-03-23T18:47:16.431Z,13.76
2023-03-23T18:48:16.461Z,13.76
2023-03-23T18:49:16.422Z,13.73
2023-03-23T18:50:16.474Z,13.71
2023-03-23T18:51:16.383Z,13.69
2023-03-23T18:52:16.402Z,13.67
2023-03-23T18:53:16.380Z,13.63
2023-03-23T18:54:16.381Z,13.61
2023-03-23T18:55:16.378Z,13.61
2023-03-23T18:56:16.379Z,13.58
2023-03-23T18:57:16.347Z,13.58
2023-03-23T18:58:16.339Z,13.56
2023-03-23T18:59:16.324Z,13.55
2023-03-23T19:00:16.333Z,13.55
2023-03-23T19:01:16.350Z,13.55
2023-03-23T19:02:16.370Z,13.54
2023-03-23T19:03:16.329Z,13.52
2023-03-23T19:04:16.299Z,13.52
2023-03-23T19:05:16.246Z,13.49
2023-03-23T19:06:16.297Z,13.49
2023-03-23T19:07:16.240Z,13.47
2023-03-23T19:08:16.261Z,13.47
2023-03-23T19:09:16.217Z,13.47
2023-03-23T19:10:16.206Z,13.46
2023-03-23T19:11:16.184Z,13.46
2023-03-23T19:12:16.213Z,13.49
2023-03-23T19:13:16.492Z,13.49
2023-03-23T19:14:16.161Z,13.47
2023-03-23T19:15:16.139Z,13.49
2023-03-23T19:16:16.171Z,13.49
2023-03-23T19:17:17.587Z,13.49
2023-03-23T19:18:16.134Z,13.49
2023-03-23T19:19:16.575Z,13.47
2023-03-23T19:20:23.618Z,13.47
2023-03-23T19:21:20.540Z,13.49
2023-03-23T19:22:17.082Z,13.47
2023-03-23T19:23:16.052Z,13.47
2023-03-23T19:24:16.069Z,13.49
2023-03-23T19:25:16.690Z,13.47
2023-03-23T19:26:16.029Z,13.47
2023-03-23T19:27:16.586Z,13.47
2023-03-23T19:30:16.017Z,13.46
2023-03-23T19:31:15.993Z,13.44
2023-03-23T19:32:15.967Z,13.41
2023-03-23T19:33:15.924Z,13.38
2023-03-23T19:34:15.962Z,13.40
2023-03-23T19:35:16.671Z,13.38
2023-03-23T19:36:16.806Z,13.38
2023-03-23T19:37:16.344Z,13.37
2023-03-23T19:38:15.900Z,13.37
2023-03-23T19:39:15.910Z,13.38
2023-03-23T19:40:35.407Z,13.38
2023-03-23T19:41:18.978Z,13.40
2023-03-23T19:42:16.003Z,13.40
2023-03-23T19:43:15.813Z,13.38
2023-03-23T19:44:15.816Z,13.37
2023-03-23T19:45:15.972Z,13.36
2023-03-23T19:46:15.873Z,13.32
2023-03-23T19:47:15.830Z,13.27
2023-03-23T19:48:16.265Z,13.27
2023-03-23T19:49:15.738Z,13.27
2023-03-23T19:50:16.642Z,13.24
2023-03-23T19:51:15.715Z,13.24
2023-03-23T19:52:18.257Z,13.22
2023-03-23T19:53:15.911Z,13.22
2023-03-23T19:54:15.695Z,13.22
2023-03-23T19:55:15.759Z,13.22
2023-03-23T19:56:16.672Z,13.21
2023-03-23T19:57:16.718Z,13.21
2023-03-23T19:58:16.241Z,13.17
2023-03-23T19:59:16.304Z,13.17
2023-03-23T20:00:15.642Z,13.18
2023-03-23T20:01:15.670Z,13.15
2023-03-23T20:02:15.632Z,13.17
2023-03-23T20:03:16.009Z,13.17
2023-03-23T20:04:15.585Z,13.20
2023-03-23T20:05:15.652Z,13.21
2023-03-23T20:06:15.678Z,13.21
2023-03-23T20:07:15.539Z,13.18
2023-03-23T20:08:16.108Z,13.18
2023-03-23T20:09:15.519Z,13.15
2023-03-23T20:10:15.528Z,13.14
2023-03-23T20:11:16.165Z,13.12
2023-03-23T20:12:16.188Z,13.12
2023-03-23T20:13:15.488Z,13.14
2023-03-23T20:14:15.495Z,13.11
2023-03-23T20:15:15.455Z,13.07
2023-03-23T20:16:15.722Z,13.06
2023-03-23T20:17:15.427Z,13.06
2023-03-23T20:18:15.481Z,13.04
2023-03-23T20:19:15.407Z,13.02
2023-03-23T20:20:16.090Z,13.02
2023-03-23T20:21:15.379Z,13.03
2023-03-23T20:22:15.423Z,13.03
2023-03-23T20:23:15.381Z,13.02
2023-03-23T20:24:15.536Z,13.00
2023-03-23T20:25:15.669Z,13.00
2023-03-23T20:26:15.364Z,13.00
2023-03-23T20:27:15.525Z,13.02
2023-03-23T20:28:15.321Z,13.02
2023-03-23T20:29:15.281Z,13.02
2023-03-23T20:30:15.556Z,13.00
2023-03-23T20:31:19.971Z,13.00
2023-03-23T20:32:16.274Z,12.97
2023-03-23T20:33:15.242Z,12.99
2023-03-23T20:34:15.254Z,12.97
2023-03-23T20:35:15.213Z,12.96
2023-03-23T20:36:15.310Z,12.96
2023-03-23T20:37:15.218Z,12.96
2023-03-23T20:38:15.219Z,12.97
2023-03-23T20:39:15.222Z,12.97
2023-03-23T20:40:15.188Z,12.96
2023-03-23T20:41:15.196Z,12.95
2023-03-23T20:42:15.145Z,12.95
2023-03-23T20:43:15.147Z,12.95
2023-03-23T20:44:15.125Z,12.95
2023-03-23T20:45:15.154Z,12.96
2023-03-23T20:46:15.805Z,12.97
2023-03-23T20:47:15.109Z,12.99
2023-03-23T20:48:15.081Z,12.99
2023-03-23T20:49:15.080Z,12.99
2023-03-23T20:50:15.060Z,12.99
2023-03-23T20:51:15.094Z,12.99
2023-03-23T20:52:15.028Z,13.00
2023-03-23T20:53:15.032Z,13.00
2023-03-23T20:54:15.025Z,12.99
2023-03-23T20:55:15.037Z,12.99
2023-03-23T20:56:14.976Z,12.99
2023-03-23T20:57:15.031Z,12.96
2023-03-23T20:58:14.978Z,12.96
2023-03-23T20:59:14.998Z,12.96
2023-03-23T21:00:14.947Z,12.97
2023-03-23T21:01:15.041Z,12.96
2023-03-23T21:02:14.929Z,12.97
2023-03-23T21:03:15.886Z,12.99
2023-03-23T21:04:15.844Z,12.97
2023-03-23T21:05:14.945Z,12.99
2023-03-23T21:06:14.869Z,13.00
2023-03-23T21:07:14.886Z,13.00
2023-03-23T21:08:14.846Z,13.00
2023-03-23T21:09:14.849Z,12.97
2023-03-23T21:10:14.840Z,12.99
2023-03-23T21:11:14.831Z,12.99
2023-03-23T21:12:14.807Z,12.99
2023-03-23T21:13:14.816Z,13.02
2023-03-23T21:14:16.259Z,12.99
2023-03-23T21:15:16.272Z,12.99
2023-03-23T21:16:14.772Z,12.97
2023-03-23T21:17:16.240Z,12.96
2023-03-23T21:18:14.760Z,12.95
2023-03-23T21:19:14.741Z,12.95
2023-03-23T21:20:14.753Z,12.93
2023-03-23T21:21:14.844Z,12.92
2023-03-23T21:22:14.760Z,12.93
2023-03-23T21:23:14.984Z,12.93
2023-03-23T21:24:14.682Z,12.93
2023-03-23T21:25:14.696Z,12.92
2023-03-23T21:26:14.641Z,12.89
2023-03-23T21:27:14.956Z,12.92
2023-03-23T21:28:14.656Z,12.89
2023-03-23T21:29:14.629Z,12.89
2023-03-23T21:30:14.628Z,12.92
2023-03-23T21:31:14.607Z,12.92
2023-03-23T21:32:15.578Z,12.89
2023-03-23T21:33:14.617Z,12.88
2023-03-23T21:34:14.564Z,12.92
2023-03-23T21:35:14.571Z,12.89
2023-03-23T21:36:14.536Z,12.92
2023-03-23T21:37:14.562Z,12.92
2023-03-23T21:38:14.527Z,12.88
2023-03-23T21:39:14.517Z,12.88
2023-03-23T21:40:14.473Z,12.87
2023-03-23T21:41:14.570Z,12.85
2023-03-23T21:42:14.484Z,12.84
2023-03-23T21:43:14.484Z,12.84
2023-03-23T21:44:14.449Z,12.85
2023-03-23T21:45:14.447Z,12.82
2023-03-23T21:46:14.412Z,12.82
2023-03-23T21:47:14.487Z,12.84
2023-03-23T21:48:14.390Z,12.84
2023-03-23T21:49:14.617Z,12.84
2023-03-23T21:50:14.370Z,12.85
2023-03-23T21:51:14.377Z,12.85
2023-03-23T21:52:14.361Z,12.87
2023-03-23T21:53:14.351Z,12.87
2023-03-23T21:54:14.335Z,12.88
2023-03-23T21:55:14.351Z,12.88
2023-03-23T21:56:14.316Z,12.88
2023-03-23T21:57:14.320Z,12.87
2023-03-23T21:58:14.286Z,12.85
2023-03-23T21:59:14.308Z,12.84
2023-03-23T22:00:14.255Z,12.82
2023-03-23T22:01:14.283Z,12.81
2023-03-23T22:02:14.247Z,12.79
2023-03-23T22:03:14.282Z,12.79
2023-03-23T22:04:14.238Z,12.81
2023-03-23T22:05:14.213Z,12.77
2023-03-23T22:06:14.188Z,12.75
2023-03-23T22:07:14.208Z,12.71
2023-03-23T22:08:14.174Z,12.69
2023-03-23T22:09:14.202Z,12.67
2023-03-23T22:10:14.152Z,12.69
2023-03-23T22:11:14.158Z,12.66
2023-03-23T22:12:14.110Z,12.66
2023-03-23T22:13:14.120Z,12.64
2023-03-23T22:14:14.127Z,12.64
2023-03-23T22:15:14.112Z,12.66
2023-03-23T22:16:14.108Z,12.67
2023-03-23T22:17:14.080Z,12.67
2023-03-23T22:18:14.062Z,12.66
2023-03-23T22:19:14.098Z,12.63
2023-03-23T22:20:14.031Z,12.60
2023-03-23T22:21:14.042Z,12.60
2023-03-23T22:22:14.005Z,12.59
2023-03-23T22:23:14.040Z,12.60
2023-03-23T22:24:14.037Z,12.60
2023-03-23T22:25:14.013Z,12.62
2023-03-23T22:26:13.975Z,12.60
2023-03-23T22:27:13.970Z,12.60
2023-03-23T22:28:13.932Z,12.62
2023-03-23T22:29:13.966Z,12.60
2023-03-23T22:30:13.912Z,12.59
2023-03-23T22:31:13.952Z,12.60
2023-03-23T22:32:13.912Z,12.59
2023-03-23T22:33:13.941Z,12.60
2023-03-23T22:34:13.966Z,12.60
2023-03-23T22:35:13.910Z,12.60
2023-03-23T22:36:13.944Z,12.59
2023-03-23T22:37:13.857Z,12.59
2023-03-23T22:38:13.829Z,12.59
2023-03-23T22:39:13.883Z,12.59
2023-03-23T22:40:13.840Z,12.60
2023-03-23T22:41:13.823Z,12.62
2023-03-23T22:42:13.797Z,12.62
2023-03-23T22:43:13.799Z,12.62
2023-03-23T22:44:13.833Z,12.64
2023-03-23T22:45:13.772Z,12.67
2023-03-23T22:46:13.789Z,12.66
2023-03-23T22:47:13.756Z,12.66
2023-03-23T22:48:13.729Z,12.64
2023-03-23T22:49:13.729Z,12.66
2023-03-23T22:50:13.700Z,12.67
2023-03-23T22:51:13.726Z,12.69
2023-03-23T22:52:13.680Z,12.74
2023-03-23T22:53:13.718Z,12.74
2023-03-23T22:54:13.652Z,12.74
2023-03-23T22:55:13.679Z,12.77
2023-03-23T22:56:13.626Z,12.77
2023-03-23T22:57:13.701Z,12.78
2023-03-23T22:58:13.613Z,12.79
2023-03-23T22:59:13.656Z,12.82
2023-03-23T23:00:13.598Z,12.84
2023-03-23T23:01:13.664Z,12.85
2023-03-23T23:02:13.586Z,12.82
2023-03-23T23:03:13.845Z,12.85
2023-03-23T23:04:13.572Z,12.85
2023-03-23T23:05:13.575Z,12.85
2023-03-23T23:06:13.513Z,12.85
2023-03-23T23:07:13.944Z,12.87
2023-03-23T23:08:15.179Z,12.89
2023-03-23T23:09:13.497Z,12.88
2023-03-23T23:10:14.960Z,12.89
2023-03-23T23:11:13.485Z,12.89
2023-03-23T23:12:13.499Z,12.93
2023-03-23T23:13:13.478Z,12.93
2023-03-23T23:14:13.429Z,12.95
2023-03-23T23:15:13.447Z,12.96
2023-03-23T23:16:13.444Z,12.95
2023-03-23T23:17:13.404Z,12.95
2023-03-23T23:18:13.440Z,12.95
2023-03-23T23:19:13.399Z,12.96
2023-03-23T23:20:13.370Z,12.96
2023-03-23T23:21:13.362Z,12.95
2023-03-23T23:22:19.082Z,12.97
2023-03-23T23:23:14.349Z,12.99
2023-03-23T23:24:13.311Z,12.97
2023-03-23T23:25:13.321Z,13.00
2023-03-23T23:26:13.327Z,12.99
2023-03-23T23:27:13.308Z,13.00
2023-03-23T23:28:13.267Z,13.02
2023-03-23T23:29:13.265Z,13.03
2023-03-23T23:30:13.233Z,13.02
2023-03-23T23:31:13.301Z,13.03
2023-03-23T23:32:13.232Z,13.03
2023-03-23T23:33:13.246Z,13.03
2023-03-23T23:34:13.201Z,13.04
2023-03-23T23:35:13.233Z,13.04
2023-03-23T23:36:13.163Z,13.03
2023-03-23T23:37:13.179Z,13.03
2023-03-23T23:38:13.146Z,13.03
2023-03-23T23:39:13.175Z,13.03
2023-03-23T23:40:13.150Z,13.03
2023-03-23T23:41:13.149Z,13.02
2023-03-23T23:42:13.101Z,13.02
2023-03-23T23:43:13.129Z,13.02
2023-03-23T23:44:13.082Z,13.03
2023-03-23T23:45:13.118Z,13.04
2023-03-23T23:46:13.164Z,13.03
2023-03-23T23:47:13.071Z,13.04
2023-03-23T23:48:13.041Z,13.04
2023-03-23T23:49:13.045Z,13.04
2023-03-23T23:50:13.026Z,13.04
2023-03-23T23:51:13.786Z,13.04
2023-03-23T23:52:12.999Z,13.04
2023-03-23T23:53:13.005Z,13.04
2023-03-23T23:54:12.967Z,13.06
2023-03-23T23:55:12.973Z,13.04
2023-03-23T23:56:12.958Z,13.04
2023-03-23T23:57:13.001Z,13.06
2023-03-23T23:58:12.935Z,13.04
2023-03-23T23:59:12.934Z,13.04
